aviador You're here:

KASH Decoded Metar

NASHUA/BOIRE FLD in NH, USA
Report Time2017-11-21 05:56:00
UTC Time2017-11-21 06:08:01
Flight Rules vfr VFR
WindCalm
Visibility9999 m
Phenomena:N/A
Clouds:Overcast 049 Hf
Expected CloudBase > 2,000 ft AGL from Temp-Dew spread
Ceiling4,900 ft
Temp03°C (ISA -12)
Dew Point-2°C (70% RH)
AAT0.7°C
QNH1018 hPa
Density Alt-1,306 ft
Elevation200 ft
Report Wrong Elevation
Raw Report
METAR KASH 210556Z AUTO 00000KT 10SM OVC049 03/M02 A3006 RMK AO2 SLP190
T00331017 10039 20028 51009=

Extra information for KASH:More info

Metar Taf Metar & Taf Last 4 Metars F.Rules Stats Wind Profile Meteogram Temp Stats Airport Information Weather charts Add Link Nearby VenuesMetar ALERT Operation Metar Decoded Social comments

AIRNAV info for KASH